Terminal Aerodrome Forecast
Issued by NWS

Home | Current Version | Previous Version | Text Only | Print | Product List | Glossary On
Versions: 1 2 3 4 5 6 7 8 9 10 11 12 13 14 15 16 17 18 19 20
000
FTUS43 KAPX 221120
TAFAPN
TAF
KAPN 221120Z 2212/2312 00000KT P6SM SKC
     FM221300 34005KT P6SM SKC
     FM221500 34012KT P6SM SKC
     FM221700 34011G18KT P6SM SKC
     FM230100 00000KT P6SM SKC=

USA.gov is the U.S. government's official web portal to all federal, state and local government web resources and services.